Time;durP1;ratioP1;P1;durP2;ratioP2;P2;SDS_P1;SDS_P2;PMS_P1;PMS_P2;Temp;Humidity;BMP_temperature;BMP_pressure;BME280_temperature;BME280_humidity;BME280_pressure;Samples;Min_cycle;Max_cycle;Signal;HPM_P1;HPM_P2
2021/07/22 00:00:08;;;;;;;;;20.75;19.00;;;;;27.69;42.96;101781.94;5017464;28;51099;-45
2021/07/22 00:02:34;;;;;;;;;23.00;16.00;;;;;27.69;42.80;101779.16;5007221;28;51422;-47
2021/07/22 00:05:00;;;;;;;;;21.75;20.00;;;;;27.68;42.51;101775.53;4998387;28;50982;-45
2021/07/22 00:07:25;;;;;;;;;19.00;17.50;;;;;27.67;42.45;101778.59;5013017;28;51105;-47
2021/07/22 00:09:51;;;;;;;;;22.25;16.25;;;;;27.67;42.39;101784.16;5005869;28;52563;-52
2021/07/22 00:12:17;;;;;;;;;21.00;17.25;;;;;27.66;42.15;101782.47;5016391;28;50977;-47
2021/07/22 00:14:43;;;;;;;;;20.75;17.75;;;;;27.63;42.76;101772.66;5010854;28;51033;-46
2021/07/22 00:17:09;;;;;;;;;20.75;17.50;;;;;27.63;42.45;101777.38;5017075;28;51218;-46
2021/07/22 00:19:35;;;;;;;;;21.25;18.00;;;;;27.63;42.71;101771.81;5016447;28;51723;-45
2021/07/22 00:22:01;;;;;;;;;22.00;16.00;;;;;27.62;43.07;101770.97;5002167;28;51453;-51
2021/07/22 00:24:27;;;;;;;;;17.25;16.75;;;;;27.61;42.49;101778.44;5004205;28;51307;-47
2021/07/22 00:26:53;;;;;;;;;21.00;18.00;;;;;27.61;42.21;101778.44;5017911;28;51035;-46
2021/07/22 00:29:20;;;;;;;;;16.25;14.75;;;;;27.61;42.57;101783.16;5009360;28;52683;-46
2021/07/22 00:31:45;;;;;;;;;19.00;18.75;;;;;27.59;42.23;101779.78;5006234;28;51422;-48
2021/07/22 00:34:11;;;;;;;;;17.50;15.75;;;;;27.58;42.34;101778.94;4998287;28;51107;-45
2021/07/22 00:36:36;;;;;;;;;23.00;20.50;;;;;27.57;42.92;101785.59;5005975;28;51123;-45
2021/07/22 00:39:02;;;;;;;;;20.00;18.25;;;;;27.57;42.77;101784.75;5003790;28;51093;-45
2021/07/22 00:41:28;;;;;;;;;23.50;19.75;;;;;27.57;42.36;101782.81;5000886;28;51452;-45
2021/07/22 00:43:53;;;;;;;;;21.25;17.00;;;;;27.56;42.45;101783.06;5003957;28;51071;-45
2021/07/22 00:46:18;;;;;;;;;24.00;15.00;;;;;27.56;42.63;101794.19;4998480;28;51001;-46
2021/07/22 00:48:44;;;;;;;;;20.50;19.00;;;;;27.54;42.88;101786.09;5013500;28;51878;-45
2021/07/22 00:51:09;;;;;;;;;16.75;15.25;;;;;27.53;42.72;101787.19;5002441;28;51088;-46
2021/07/22 00:53:35;;;;;;;;;19.75;16.25;;;;;27.53;42.67;101789.13;5010479;28;51040;-46
2021/07/22 00:56:02;;;;;;;;;17.00;16.75;;;;;27.53;42.34;101783.56;5008106;28;51012;-46
2021/07/22 00:58:27;;;;;;;;;19.50;17.50;;;;;27.50;42.27;101778.47;5010452;28;52161;-47
2021/07/22 01:00:52;;;;;;;;;22.75;19.00;;;;;27.50;42.38;101782.09;4998204;28;51356;-44
2021/07/22 01:03:19;;;;;;;;;17.50;14.25;;;;;27.50;42.20;101784.88;5009381;28;51101;-46
2021/07/22 01:05:44;;;;;;;;;19.00;14.50;;;;;27.49;42.17;101783.19;5011826;28;51060;-44
2021/07/22 01:08:09;;;;;;;;;19.00;16.25;;;;;27.48;42.09;101787.09;5012893;28;53041;-48
2021/07/22 01:10:35;;;;;;;;;17.00;17.00;;;;;27.48;42.77;101783.44;5008564;28;51041;-47
2021/07/22 01:13:00;;;;;;;;;17.50;17.25;;;;;27.47;42.83;101790.97;5019693;28;50843;-48
2021/07/22 01:15:25;;;;;;;;;20.50;17.50;;;;;27.47;42.83;101782.59;5008028;28;50915;-48
2021/07/22 01:17:51;;;;;;;;;19.25;17.50;;;;;27.46;42.01;101783.72;5015517;28;50923;-45
2021/07/22 01:20:25;;;;;;;;;22.00;16.75;;;;;27.46;42.39;101785.66;5016942;28;51041;-46
2021/07/22 01:22:53;;;;;;;;;18.50;17.50;;;;;27.45;42.71;101792.31;5009289;28;51120;-45
2021/07/22 01:25:19;;;;;;;;;21.25;19.00;;;;;27.44;42.34;101785.91;5002105;28;51437;-45
2021/07/22 01:27:45;;;;;;;;;22.00;14.75;;;;;27.43;42.83;101784.22;5013819;28;51022;-46
2021/07/22 01:30:12;;;;;;;;;18.25;15.75;;;;;27.43;42.08;101792.56;5011205;28;51134;-48
2021/07/22 01:32:38;;;;;;;;;18.75;15.75;;;;;27.42;42.54;101790.03;5005804;28;51078;-44
2021/07/22 01:35:04;;;;;;;;;20.25;17.75;;;;;27.42;42.94;101787.25;5008779;28;51406;-46
2021/07/22 01:37:30;;;;;;;;;20.00;17.25;;;;;27.40;42.74;101783.84;5006788;28;51029;-48
2021/07/22 01:39:55;;;;;;;;;18.00;16.75;;;;;27.39;42.19;101782.16;5007785;28;51232;-50
2021/07/22 01:42:21;;;;;;;;;19.00;17.00;;;;;27.38;42.25;101786.88;5016995;28;51129;-47
2021/07/22 01:44:46;;;;;;;;;15.75;13.00;;;;;27.38;42.46;101781.31;5015926;28;51225;-46
2021/07/22 01:47:12;;;;;;;;;22.25;19.25;;;;;27.37;42.21;101779.63;5007823;28;51754;-48
2021/07/22 01:49:37;;;;;;;;;20.25;18.25;;;;;27.37;42.86;101784.34;5003122;28;51044;-46
2021/07/22 01:52:07;;;;;;;;;19.50;17.25;;;;;27.36;42.92;101777.94;5012144;28;51058;-46
2021/07/22 01:54:32;;;;;;;;;18.00;15.00;;;;;27.36;43.01;101779.88;5006260;28;51222;-49
2021/07/22 01:56:58;;;;;;;;;17.25;15.50;;;;;27.35;42.50;101778.19;5015781;28;52514;-45
2021/07/22 01:59:25;;;;;;;;;20.25;18.00;;;;;27.34;42.45;101771.78;4999900;28;51328;-47
2021/07/22 02:01:50;;;;;;;;;16.75;14.50;;;;;27.35;42.34;101776.25;5000677;28;50917;-48
2021/07/22 02:04:15;;;;;;;;;20.00;19.50;;;;;27.33;42.84;101779.28;4999801;28;50985;-53
2021/07/22 02:06:41;;;;;;;;;18.50;16.00;;;;;27.32;42.54;101773.97;5006069;28;51580;-45
2021/07/22 02:09:06;;;;;;;;;21.25;17.75;;;;;27.32;42.44;101773.97;5006960;28;50988;-47
2021/07/22 02:11:32;;;;;;;;;21.00;15.75;;;;;27.31;42.86;101767.56;5004151;28;51000;-45
2021/07/22 02:13:57;;;;;;;;;18.00;18.00;;;;;27.31;42.21;101772.28;4997352;28;51068;-45
2021/07/22 02:16:22;;;;;;;;;18.75;16.00;;;;;27.30;42.78;101767.78;5011607;28;51859;-49
2021/07/22 02:18:48;;;;;;;;;21.00;18.25;;;;;27.30;42.78;101770.56;5009853;28;51022;-47
2021/07/22 02:21:14;;;;;;;;;17.50;15.75;;;;;27.28;42.39;101769.97;5016451;28;51122;-47
2021/07/22 02:23:39;;;;;;;;;21.00;15.75;;;;;27.28;42.73;101772.75;5015520;28;51024;-44
2021/07/22 02:26:06;;;;;;;;;20.25;16.25;;;;;27.28;42.66;101772.75;5000268;28;51724;-45
2021/07/22 02:28:32;;;;;;;;;17.00;16.00;;;;;27.27;42.76;101765.50;5008862;28;51165;-45
2021/07/22 02:30:58;;;;;;;;;20.25;16.75;;;;;27.26;42.38;101767.44;5014435;28;51129;-45
2021/07/22 02:33:23;;;;;;;;;20.50;15.75;;;;;27.27;42.42;101768.28;5010614;28;50919;-45
2021/07/22 02:35:48;;;;;;;;;20.00;19.00;;;;;27.25;42.76;101765.75;5004854;28;51761;-46
2021/07/22 02:38:14;;;;;;;;;17.50;16.75;;;;;27.25;42.50;101762.97;5004270;28;50926;-51
2021/07/22 02:40:39;;;;;;;;;14.50;11.75;;;;;27.25;42.53;101770.47;5012556;28;51011;-45
2021/07/22 02:43:05;;;;;;;;;19.25;16.50;;;;;27.23;42.86;101767.94;5001552;28;51176;-44
2021/07/22 02:45:30;;;;;;;;;20.25;19.00;;;;;27.23;42.76;101765.16;5005452;28;51786;-47
2021/07/22 02:47:56;;;;;;;;;16.50;16.50;;;;;27.22;42.33;101771.81;5016165;28;50919;-45
2021/07/22 02:50:22;;;;;;;;;15.50;15.50;;;;;27.22;42.50;101779.31;5013810;28;50833;-46
2021/07/22 02:52:47;;;;;;;;;13.75;13.25;;;;;27.21;42.71;101780.41;5007605;28;51091;-45
2021/07/22 02:55:13;;;;;;;;;18.50;16.50;;;;;27.20;42.35;101779.56;5010277;28;51034;-46
2021/07/22 02:57:39;;;;;;;;;15.00;14.00;;;;;27.20;42.15;101784.25;5013110;28;51558;-46
2021/07/22 03:00:05;;;;;;;;;19.25;16.75;;;;;27.19;42.33;101782.56;5012973;28;51300;-52
2021/07/22 03:02:31;;;;;;;;;20.00;18.75;;;;;27.19;42.64;101777.00;5010791;28;51334;-49
2021/07/22 03:04:56;;;;;;;;;12.00;12.00;;;;;27.18;42.15;101784.50;5006770;28;51204;-45
2021/07/22 03:07:21;;;;;;;;;14.00;11.75;;;;;27.18;42.39;101778.09;5006931;28;51009;-48
2021/07/22 03:09:47;;;;;;;;;13.25;12.25;;;;;27.17;42.88;101780.03;4999565;28;51400;-48
2021/07/22 03:12:12;;;;;;;;;20.00;16.50;;;;;27.16;42.22;101778.34;5011198;28;51149;-46
2021/07/22 03:14:38;;;;;;;;;18.00;17.50;;;;;27.15;42.31;101776.66;5013831;28;51922;-45
2021/07/22 03:17:03;;;;;;;;;19.75;17.75;;;;;27.15;42.71;101779.44;5014746;28;51017;-46
2021/07/22 03:19:28;;;;;;;;;17.50;12.50;;;;;27.15;42.06;101784.16;5004285;28;51101;-45
2021/07/22 03:21:54;;;;;;;;;18.50;17.50;;;;;27.14;42.68;101771.34;4996483;28;51145;-49
2021/07/22 03:24:19;;;;;;;;;20.50;17.25;;;;;27.13;42.69;101781.63;5005164;28;52906;-48
2021/07/22 03:26:44;;;;;;;;;22.25;17.75;;;;;27.12;42.62;101776.31;5002765;28;51065;-46
2021/07/22 03:29:10;;;;;;;;;19.50;15.00;;;;;27.12;42.62;101781.88;4997766;28;51008;-45
2021/07/22 03:31:35;;;;;;;;;21.25;16.00;;;;;27.12;42.54;101784.66;5004323;28;51174;-46
2021/07/22 03:34:00;;;;;;;;;16.75;16.75;;;;;27.11;42.02;101785.75;5001873;28;51922;-45
2021/07/22 03:36:26;;;;;;;;;18.75;17.00;;;;;27.09;42.38;101777.63;5005806;28;51283;-48
2021/07/22 03:38:51;;;;;;;;;24.75;16.00;;;;;27.09;42.21;101780.41;5008404;28;51162;-47
2021/07/22 03:41:16;;;;;;;;;18.50;14.50;;;;;27.09;42.42;101785.13;5007726;28;50997;-49
2021/07/22 03:43:43;;;;;;;;;20.25;15.25;;;;;27.08;42.66;101777.88;5003902;28;51729;-44
2021/07/22 03:46:08;;;;;;;;;19.50;12.50;;;;;27.07;42.47;101785.38;5001649;28;51136;-45
2021/07/22 03:48:34;;;;;;;;;19.50;17.25;;;;;27.06;42.42;101778.13;5007133;28;50989;-45
2021/07/22 03:50:59;;;;;;;;;16.50;14.75;;;;;27.04;42.28;101770.03;5018763;28;51229;-45
2021/07/22 03:53:25;;;;;;;;;17.50;16.50;;;;;27.03;41.90;101779.47;5016589;28;51917;-46
2021/07/22 03:55:50;;;;;;;;;20.00;19.75;;;;;27.03;42.27;101776.69;5017947;28;51085;-47
2021/07/22 03:58:15;;;;;;;;;17.00;14.25;;;;;27.01;41.80;101767.72;5015637;28;51038;-47
2021/07/22 04:00:41;;;;;;;;;17.50;16.50;;;;;27.02;42.26;101772.22;5012648;28;51296;-46
2021/07/22 04:03:06;;;;;;;;;17.50;15.50;;;;;27.01;42.56;101770.50;5001498;28;51030;-47
2021/07/22 04:05:32;;;;;;;;;13.00;13.00;;;;;27.01;41.76;101778.00;5018067;28;51098;-46
2021/07/22 04:07:59;;;;;;;;;19.25;16.25;;;;;26.99;42.00;101771.78;5017179;28;51021;-46
2021/07/22 04:10:25;;;;;;;;;17.50;15.25;;;;;27.01;42.33;101780.78;5007717;28;51247;-45
2021/07/22 04:12:58;;;;;;;;;17.00;15.75;;;;;26.98;42.47;101778.44;5003628;28;51314;-45
2021/07/22 04:15:25;;;;;;;;;14.00;12.50;;;;;26.97;42.07;101779.53;4997846;28;51353;-46
2021/07/22 04:17:51;;;;;;;;;18.50;18.00;;;;;26.96;42.00;101773.13;4999074;28;51070;-46
2021/07/22 04:20:18;;;;;;;;;15.00;12.50;;;;;26.95;41.73;101774.22;5003049;28;50933;-46
2021/07/22 04:22:43;;;;;;;;;17.75;14.25;;;;;26.96;41.89;101777.84;5009880;28;52594;-48
2021/07/22 04:25:09;;;;;;;;;17.75;15.50;;;;;26.95;41.69;101777.00;5000641;28;51044;-45
2021/07/22 04:27:34;;;;;;;;;18.00;16.75;;;;;26.94;42.21;101777.25;5017080;28;51144;-45
2021/07/22 04:30:01;;;;;;;;;16.00;15.00;;;;;26.94;41.95;101780.03;5005444;28;51337;-47
2021/07/22 04:32:27;;;;;;;;;15.75;15.50;;;;;26.93;42.44;101783.91;5014779;28;52817;-45
2021/07/22 04:34:52;;;;;;;;;20.75;17.75;;;;;26.92;42.36;101779.44;5006434;28;51445;-45
2021/07/22 04:37:18;;;;;;;;;21.00;18.75;;;;;26.91;41.96;101781.38;5005463;28;50928;-46
2021/07/22 04:39:43;;;;;;;;;19.00;14.75;;;;;26.91;41.75;101786.94;5008453;28;51004;-46
2021/07/22 04:42:08;;;;;;;;;22.25;18.25;;;;;26.90;42.03;101790.81;5013126;28;51017;-49
2021/07/22 04:44:34;;;;;;;;;15.75;14.25;;;;;26.91;42.22;101786.09;5012764;28;51105;-47
2021/07/22 04:46:59;;;;;;;;;17.50;15.25;;;;;26.90;42.33;101789.97;5014003;28;51354;-48
2021/07/22 04:49:24;;;;;;;;;15.75;12.75;;;;;26.88;42.51;101790.19;5012784;28;51069;-46
2021/07/22 04:51:50;;;;;;;;;18.50;17.50;;;;;26.88;42.38;101797.69;5011472;28;52933;-47
2021/07/22 04:54:15;;;;;;;;;22.25;19.00;;;;;26.87;42.27;101794.06;5005751;28;50915;-45
2021/07/22 04:56:41;;;;;;;;;14.75;13.75;;;;;26.87;42.40;101796.84;4999082;28;51465;-48
2021/07/22 04:59:06;;;;;;;;;18.50;16.25;;;;;26.86;41.98;101802.66;5007906;28;50967;-46
2021/07/22 05:01:32;;;;;;;;;14.75;12.75;;;;;26.85;42.22;101804.56;5014151;28;52996;-48
2021/07/22 05:03:59;;;;;;;;;16.50;14.25;;;;;26.85;41.92;101800.94;5009256;28;51049;-45
2021/07/22 05:06:24;;;;;;;;;18.50;17.00;;;;;26.85;41.80;101798.19;5013600;28;51093;-45
2021/07/22 05:08:49;;;;;;;;;17.50;17.00;;;;;26.84;42.55;101808.44;4997994;28;51077;-45
2021/07/22 05:11:15;;;;;;;;;19.00;17.00;;;;;26.83;42.25;101806.75;4998011;28;51132;-47
2021/07/22 05:13:40;;;;;;;;;18.50;16.25;;;;;26.83;42.01;101805.91;5007967;28;51170;-46
2021/07/22 05:16:07;;;;;;;;;19.00;17.25;;;;;26.83;41.77;101805.91;5007695;28;51239;-48
2021/07/22 05:18:33;;;;;;;;;20.75;19.00;;;;;26.83;41.98;101803.97;5001461;28;51075;-49
2021/07/22 05:21:03;;;;;;;;;18.50;16.75;;;;;26.82;42.23;101807.84;5013800;28;52487;-49
2021/07/22 05:23:28;;;;;;;;;24.75;21.25;;;;;26.79;41.75;101811.13;5007044;28;51233;-47
2021/07/22 05:25:53;;;;;;;;;18.00;16.50;;;;;26.76;42.12;101806.88;5007397;28;51503;-47
2021/07/22 05:28:19;;;;;;;;;21.75;21.25;;;;;26.73;41.96;101812.06;4999089;28;51405;-49
2021/07/22 05:30:44;;;;;;;;;17.25;16.00;;;;;26.70;41.98;101815.34;5005010;28;51821;-50
2021/07/22 05:33:09;;;;;;;;;18.25;16.25;;;;;26.67;42.18;101816.66;5000217;28;51191;-48
2021/07/22 05:35:35;;;;;;;;;18.00;17.25;;;;;26.64;41.98;101810.75;5008727;28;51535;-45
2021/07/22 05:38:00;;;;;;;;;18.00;15.25;;;;;26.62;41.99;101808.22;5013735;28;51322;-48
2021/07/22 05:40:25;;;;;;;;;20.50;18.75;;;;;26.60;41.97;101815.94;5016943;28;51745;-47
2021/07/22 05:42:51;;;;;;;;;22.50;19.75;;;;;26.57;42.28;101819.19;5016580;28;51061;-47
2021/07/22 05:45:16;;;;;;;;;20.75;19.00;;;;;26.56;42.15;101811.94;5008309;28;51272;-45
2021/07/22 05:47:42;;;;;;;;;22.75;17.75;;;;;26.54;42.37;101814.13;5010978;28;51079;-44
2021/07/22 05:50:08;;;;;;;;;21.50;19.00;;;;;26.54;41.97;101816.88;4998615;28;52026;-49
2021/07/22 05:52:33;;;;;;;;;16.75;15.25;;;;;26.53;41.84;101822.69;5008002;28;51162;-44
2021/07/22 05:54:58;;;;;;;;;22.75;18.00;;;;;26.51;42.12;101816.53;5010181;28;51079;-45
2021/07/22 05:57:24;;;;;;;;;15.50;14.50;;;;;26.51;42.10;101817.38;5008761;28;50819;-49
2021/07/22 05:59:50;;;;;;;;;15.75;15.00;;;;;26.49;42.03;101819.56;4999480;28;52007;-50
2021/07/22 06:02:15;;;;;;;;;21.00;19.75;;;;;26.50;42.56;101812.91;5009565;28;51011;-53
2021/07/22 06:04:40;;;;;;;;;17.50;17.25;;;;;26.51;42.83;101813.75;4998910;28;52112;-52
2021/07/22 06:07:06;;;;;;;;;19.50;16.75;;;;;26.51;42.27;101816.53;5002146;28;50982;-54
2021/07/22 06:09:31;;;;;;;;;21.25;15.50;;;;;26.51;42.40;101813.75;4997799;28;51890;-50
2021/07/22 06:11:57;;;;;;;;;23.25;18.75;;;;;26.50;42.70;101807.34;4997126;28;51035;-52
2021/07/22 06:14:22;;;;;;;;;22.75;21.50;;;;;26.51;42.50;101813.75;5010604;28;51131;-52
2021/07/22 06:16:48;;;;;;;;;20.50;17.25;;;;;26.50;42.64;101818.47;5004402;28;51198;-49
2021/07/22 06:19:13;;;;;;;;;21.25;18.50;;;;;26.48;42.74;101814.25;5011330;28;51087;-54
2021/07/22 06:21:38;;;;;;;;;20.00;18.50;;;;;26.48;42.53;101814.25;5003634;28;51014;-50
2021/07/22 06:24:04;;;;;;;;;17.50;17.25;;;;;26.48;42.43;101820.66;5007624;28;50995;-53
2021/07/22 06:26:34;;;;;;;;;19.50;17.75;;;;;26.50;42.46;101814.84;5012898;28;51477;-51
2021/07/22 06:29:00;;;;;;;;;20.00;17.50;;;;;26.50;42.62;101812.06;5003241;28;51967;-52
2021/07/22 06:31:25;;;;;;;;;22.50;19.25;;;;;26.50;42.35;101818.47;5012276;28;51237;-58
2021/07/22 06:33:51;;;;;;;;;19.50;18.50;;;;;26.50;42.26;101815.69;4998668;28;51136;-48
2021/07/22 06:36:16;;;;;;;;;19.75;18.75;;;;;26.52;41.92;101809.88;4997180;28;51153;-46
2021/07/22 06:38:41;;;;;;;;;17.25;14.75;;;;;26.53;42.52;101814.34;5007264;28;51041;-47
2021/07/22 06:41:07;;;;;;;;;17.50;16.50;;;;;26.54;42.40;101807.72;5013469;28;51060;-49
2021/07/22 06:43:32;;;;;;;;;21.75;16.25;;;;;26.55;42.25;101809.41;5001398;28;51062;-53
2021/07/22 06:45:58;;;;;;;;;20.25;15.00;;;;;26.55;42.47;101809.41;4996929;28;51154;-50
2021/07/22 06:48:23;;;;;;;;;21.25;19.00;;;;;26.56;42.14;101811.09;5012099;28;51807;-49
2021/07/22 06:50:49;;;;;;;;;21.75;13.75;;;;;26.57;42.64;101807.22;5016500;28;51057;-51
2021/07/22 06:53:14;;;;;;;;;18.50;17.25;;;;;26.58;42.31;101814.50;5016567;28;51035;-49
2021/07/22 06:55:40;;;;;;;;;18.50;16.25;;;;;26.58;42.09;101811.72;5016829;28;51243;-50
2021/07/22 06:58:06;;;;;;;;;18.00;16.50;;;;;26.59;42.34;101814.25;5016052;28;51982;-50
2021/07/22 07:00:32;;;;;;;;;21.25;19.00;;;;;26.59;41.87;101811.47;5016359;28;51345;-48
2021/07/22 07:03:00;;;;;;;;;18.75;16.75;;;;;26.60;41.84;101818.72;5016401;28;51326;-53
2021/07/22 07:05:25;;;;;;;;;24.50;18.50;;;;;26.60;42.15;101823.44;5016529;28;51049;-47
2021/07/22 07:07:54;;;;;;;;;20.25;18.75;;;;;26.62;41.99;101826.81;5016202;28;51355;-48
2021/07/22 07:10:19;;;;;;;;;25.25;20.25;;;;;26.62;41.61;101824.03;5016045;28;51413;-49
2021/07/22 07:12:44;;;;;;;;;19.50;17.50;;;;;26.61;41.43;101814.00;5028172;28;51047;-56
2021/07/22 07:15:10;;;;;;;;;18.75;17.50;;;;;26.62;41.36;101807.38;5039677;28;50931;-50
2021/07/22 07:17:35;;;;;;;;;21.50;17.75;;;;;26.62;41.47;101808.22;5039509;28;51089;-47
2021/07/22 07:20:01;;;;;;;;;28.50;18.25;;;;;26.64;41.47;101814.38;5038227;28;51200;-47
2021/07/22 07:22:26;;;;;;;;;24.00;18.00;;;;;26.65;41.14;101816.06;5039440;28;51488;-50
2021/07/22 07:24:52;;;;;;;;;21.00;18.75;;;;;26.68;41.02;101814.75;5039705;28;50945;-50
2021/07/22 07:27:17;;;;;;;;;20.00;17.50;;;;;26.68;41.37;101815.59;5039467;28;51777;-47
2021/07/22 07:29:42;;;;;;;;;20.00;18.75;;;;;26.70;40.90;101809.78;5037967;28;51047;-50
2021/07/22 07:32:08;;;;;;;;;19.75;17.00;;;;;26.71;41.04;101815.09;5039678;28;51048;-49
2021/07/22 07:34:33;;;;;;;;;23.25;18.25;;;;;26.72;40.71;101821.50;5039047;28;51024;-48
2021/07/22 07:36:58;;;;;;;;;18.50;16.50;;;;;26.74;40.72;101819.31;5034363;28;52278;-51
2021/07/22 07:39:24;;;;;;;;;17.50;16.50;;;;;26.74;40.91;101822.09;4999538;28;51170;-50
2021/07/22 07:41:49;;;;;;;;;20.25;17.75;;;;;26.74;40.81;101814.63;4999661;28;51098;-50
2021/07/22 07:44:14;;;;;;;;;19.50;18.50;;;;;26.77;40.22;101819.69;4998404;28;51226;-47
2021/07/22 07:46:40;;;;;;;;;20.00;17.25;;;;;26.76;40.50;101815.22;4998473;28;50955;-50
2021/07/22 07:49:06;;;;;;;;;19.50;18.25;;;;;26.79;40.39;101816.69;4999147;28;51055;-48
2021/07/22 07:51:32;;;;;;;;;18.75;15.25;;;;;26.81;40.67;101810.88;4999033;28;51175;-48
2021/07/22 07:53:57;;;;;;;;;23.00;19.25;;;;;26.82;40.37;101818.97;5015082;28;50908;-47
2021/07/22 07:56:23;;;;;;;;;24.50;20.25;;;;;26.84;40.89;101808.44;5006972;28;52265;-48
2021/07/22 07:58:49;;;;;;;;;21.00;17.50;;;;;26.85;40.55;101803.72;5011189;28;51143;-49
2021/07/22 08:01:15;;;;;;;;;21.75;19.75;;;;;26.85;41.13;101807.34;5012936;28;50942;-47
2021/07/22 08:03:41;;;;;;;;;19.25;16.25;;;;;26.86;41.21;101799.88;5008641;28;51920;-45
2021/07/22 08:06:06;;;;;;;;;20.75;16.50;;;;;26.87;41.63;101807.97;5010310;28;51801;-46
2021/07/22 08:08:32;;;;;;;;;21.25;17.00;;;;;26.88;41.95;101809.66;5009583;28;51130;-46
2021/07/22 08:10:59;;;;;;;;;15.25;15.00;;;;;26.89;42.40;101800.25;5006812;28;50990;-47
2021/07/22 08:13:25;;;;;;;;;15.25;14.00;;;;;26.91;42.10;101800.84;5006115;28;51126;-46
2021/07/22 08:15:50;;;;;;;;;20.75;18.25;;;;;26.94;42.30;101814.25;5007433;28;52923;-49
2021/07/22 08:18:16;;;;;;;;;19.00;17.00;;;;;26.96;42.17;101798.16;5009517;28;51112;-48
2021/07/22 08:20:41;;;;;;;;;19.00;17.50;;;;;26.98;41.87;101792.34;5003393;28;50879;-49
2021/07/22 08:23:07;;;;;;;;;17.50;16.00;;;;;27.01;41.79;101800.22;5004461;28;51165;-47
2021/07/22 08:25:33;;;;;;;;;15.50;14.75;;;;;27.02;42.21;101805.56;5011647;28;51773;-47
2021/07/22 08:27:58;;;;;;;;;18.25;17.00;;;;;27.02;41.79;101797.22;5006100;28;51483;-47
2021/07/22 08:30:23;;;;;;;;;18.25;16.25;;;;;27.04;42.08;101789.50;5009449;28;51166;-49
2021/07/22 08:32:49;;;;;;;;;15.25;14.75;;;;;27.07;42.47;101801.22;5002776;28;51340;-47
2021/07/22 08:35:14;;;;;;;;;12.50;10.75;;;;;27.10;42.48;101800.75;4999689;28;51196;-47
2021/07/22 08:37:41;;;;;;;;;20.75;17.50;;;;;27.13;42.02;101797.47;5010993;28;51050;-45
2021/07/22 08:40:11;;;;;;;;;21.25;14.50;;;;;27.15;42.20;101800.84;5004970;28;52775;-48
2021/07/22 08:42:40;;;;;;;;;16.75;14.25;;;;;27.18;42.19;101794.78;5003137;28;51145;-47
2021/07/22 08:45:06;;;;;;;;;17.75;16.75;;;;;27.20;42.28;101801.81;5000156;28;51270;-46
2021/07/22 08:47:32;;;;;;;;;17.50;15.75;;;;;27.22;42.44;101802.41;5010815;28;51311;-46
2021/07/22 08:49:58;;;;;;;;;18.00;16.00;;;;;27.24;42.05;101793.81;5010498;28;51110;-49
2021/07/22 08:52:23;;;;;;;;;18.75;17.50;;;;;27.26;42.59;101795.25;5007695;28;51188;-47
2021/07/22 08:54:49;;;;;;;;;15.50;15.50;;;;;27.29;42.64;101800.31;5005438;28;51861;-47
2021/07/22 08:57:17;;;;;;;;;15.75;15.75;;;;;27.30;42.55;101801.16;5003274;28;51260;-51
2021/07/22 08:59:43;;;;;;;;;15.25;14.25;;;;;27.32;42.66;101787.88;5002175;28;50895;-46
2021/07/22 09:02:15;;;;;;;;;17.75;16.25;;;;;27.35;42.04;101787.38;5011145;28;50966;-49
2021/07/22 09:04:51;;;;;;;;;17.50;16.25;;;;;27.37;42.53;101796.31;5000439;28;51127;-47
2021/07/22 09:07:18;;;;;;;;;16.75;13.75;;;;;27.39;42.31;101796.91;5004216;28;51017;-47
2021/07/22 09:09:43;;;;;;;;;17.00;15.50;;;;;27.41;41.88;101794.75;5004806;28;51132;-47
2021/07/22 09:12:09;;;;;;;;;16.75;16.25;;;;;27.43;42.64;101802.84;5013198;28;51054;-48
2021/07/22 09:14:35;;;;;;;;;15.75;15.25;;;;;27.44;42.49;101799.81;5011520;28;51928;-48
2021/07/22 09:17:01;;;;;;;;;16.00;15.00;;;;;27.47;41.92;101809.59;5008757;28;51175;-45
2021/07/22 09:19:38;;;;;;;;;18.25;17.75;;;;;27.48;42.27;101803.78;5003999;28;51212;-47
2021/07/22 09:22:08;;;;;;;;;17.50;15.00;;;;;27.49;41.94;101797.13;5000515;28;51218;-49
2021/07/22 09:24:47;;;;;;;;;18.75;17.50;;;;;27.50;42.04;101796.03;5003414;28;51324;-48
2021/07/22 09:27:41;;;;;;;;;20.50;19.75;;;;;27.54;41.76;101801.97;5006895;28;51042;-44
2021/07/22 09:30:08;;;;;;;;;14.75;14.25;;;;;27.55;42.13;101796.13;5004136;28;50946;-49
2021/07/22 09:32:36;;;;;;;;;19.25;18.75;;;;;27.56;42.44;101805.34;5004829;28;51300;-47
2021/07/22 09:35:09;;;;;;;;;16.00;12.25;;;;;27.57;42.42;101799.50;5006010;28;51938;-51
2021/07/22 09:37:39;;;;;;;;;15.50;15.00;;;;;27.57;42.37;101796.72;5009114;28;51443;-46
2021/07/22 09:40:08;;;;;;;;;16.75;15.50;;;;;27.57;42.07;101799.50;5001983;28;50994;-49
2021/07/22 09:42:45;;;;;;;;;18.00;17.00;;;;;27.57;42.36;101796.72;5000330;28;51414;-45
2021/07/22 09:45:19;;;;;;;;;19.50;16.00;;;;;27.58;42.48;101792.84;5004647;28;51922;-45
2021/07/22 09:47:46;;;;;;;;;18.00;16.00;;;;;27.59;42.73;101788.97;4997673;28;51113;-44
2021/07/22 09:50:17;;;;;;;;;13.75;13.75;;;;;27.60;42.23;101787.88;5005352;28;51521;-49
2021/07/22 09:52:43;;;;;;;;;15.00;15.00;;;;;27.61;42.17;101783.16;5015379;28;51842;-45
2021/07/22 09:55:42;;;;;;;;;17.25;12.50;;;;;27.62;42.79;101779.31;5005045;28;51675;-45
2021/07/22 09:58:09;;;;;;;;;17.25;12.00;;;;;27.63;42.14;101769.88;4967339;28;51105;-48
2021/07/22 10:00:40;;;;;;;;;15.75;12.00;;;;;27.64;42.75;101774.34;5000731;28;50985;-44
2021/07/22 10:03:08;;;;;;;;;14.50;13.00;;;;;27.66;42.66;101774.94;5007045;28;51081;-46
2021/07/22 10:06:21;;;;;;;;;15.75;11.75;;;;;27.68;42.72;101769.97;5001473;28;52553;-46
2021/07/22 10:08:46;;;;;;;;;16.25;12.00;;;;;27.69;42.22;101768.03;5005487;28;51459;-48
2021/07/22 10:11:12;;;;;;;;;14.75;13.00;;;;;27.70;42.13;101770.56;5004749;28;51144;-48
2021/07/22 10:13:43;;;;;;;;;13.00;12.00;;;;;27.71;42.74;101774.19;5011744;28;51400;-46
2021/07/22 10:16:12;;;;;;;;;12.25;11.00;;;;;27.71;42.63;101768.63;5008649;28;52611;-44
2021/07/22 10:18:45;;;;;;;;;14.75;14.00;;;;;27.72;42.48;101773.97;5005545;28;51027;-45
2021/07/22 10:21:11;;;;;;;;;18.75;16.75;;;;;27.72;42.25;101764.75;4999733;28;52186;-48
2021/07/22 10:23:38;;;;;;;;;14.50;14.50;;;;;27.73;42.51;101763.69;5005559;28;51231;-47
2021/07/22 10:26:04;;;;;;;;;16.50;13.50;;;;;27.72;42.06;101771.19;5007461;28;51837;-46
2021/07/22 10:28:30;;;;;;;;;16.75;15.50;;;;;27.74;41.92;101760.66;5012272;28;51001;-50
2021/07/22 10:30:57;;;;;;;;;21.00;17.75;;;;;27.73;41.86;101760.91;5005607;28;51144;-44
2021/07/22 10:33:24;;;;;;;;;20.00;19.50;;;;;27.73;42.42;101756.16;5008954;28;51236;-45
2021/07/22 10:35:53;;;;;;;;;22.75;21.75;;;;;27.74;42.29;101762.59;5001232;28;50951;-47
2021/07/22 10:38:27;;;;;;;;;28.00;25.00;;;;;27.75;42.36;101753.13;5004964;28;51117;-44
2021/07/22 10:40:59;;;;;;;;;35.75;30.75;;;;;27.76;41.98;101754.81;5010909;28;51041;-45
2021/07/22 10:43:41;;;;;;;;;30.00;24.25;;;;;27.76;41.86;101738.13;5003191;28;50886;-43
2021/07/22 10:46:18;;;;;;;;;33.00;31.50;;;;;27.76;42.31;101743.69;5005769;28;51260;-47
2021/07/22 10:48:44;;;;;;;;;30.75;29.25;;;;;27.77;42.58;101756.50;5008324;28;51222;-46
2021/07/22 10:51:11;;;;;;;;;39.00;31.75;;;;;27.77;41.75;101750.94;5011797;28;51111;-45
2021/07/22 10:53:45;;;;;;;;;33.00;30.50;;;;;27.77;42.40;101732.28;5003553;28;51137;-43
2021/07/22 10:56:11;;;;;;;;;34.75;32.50;;;;;27.78;42.24;101735.91;5006171;28;51581;-48
2021/07/22 10:58:36;;;;;;;;;32.00;29.75;;;;;27.78;41.78;101733.13;5004841;28;51460;-48
2021/07/22 11:01:04;;;;;;;;;40.67;35.00;;;;;27.78;42.13;101727.56;5005530;28;51242;-49
2021/07/22 11:03:35;;;;;;;;;35.75;33.00;;;;;27.78;41.88;101731.19;5025334;28;51087;-50
2021/07/22 11:06:05;;;;;;;;;37.00;33.50;;;;;27.78;41.66;101730.34;5007943;28;51959;-46